Time;durP1;ratioP1;P1;durP2;ratioP2;P2;SDS_P1;SDS_P2;PMS_P1;PMS_P2;Temp;Humidity;BMP_temperature;BMP_pressure;BME280_temperature;BME280_humidity;BME280_pressure;Samples;Min_cycle;Max_cycle;Signal;HPM_P1;HPM_P2
2023/12/17 00:00:38;;;;;;;35.20;19.42;;;;;;;10.32;99.06;103739.38;5055161;28;20447;-71
2023/12/17 00:03:04;;;;;;;38.55;22.05;;;;;;;10.30;99.31;103733.19;5061221;28;20030;-71
2023/12/17 00:05:29;;;;;;;35.63;19.63;;;;;;;10.29;99.10;103734.06;5063137;28;20016;-71
2023/12/17 00:07:54;;;;;;;36.83;21.30;;;;;;;10.31;99.28;103734.09;5062236;28;20112;-70
2023/12/17 00:10:21;;;;;;;39.50;22.48;;;;;;;10.31;99.43;103728.81;5061463;28;20106;-71
2023/12/17 00:12:47;;;;;;;34.70;19.05;;;;;;;10.34;98.93;103731.44;5059762;28;20027;-70
2023/12/17 00:15:12;;;;;;;36.10;20.52;;;;;;;10.32;98.97;103727.91;5058053;28;20029;-71
2023/12/17 00:17:37;;;;;;;34.70;20.70;;;;;;;10.33;99.16;103732.31;5059144;28;20036;-71
2023/12/17 00:20:03;;;;;;;30.52;19.52;;;;;;;10.30;99.29;103724.34;5060409;28;20322;-71
2023/12/17 00:22:28;;;;;;;38.10;20.23;;;;;;;10.27;99.70;103727.88;5060145;28;20479;-71
2023/12/17 00:24:54;;;;;;;34.13;20.27;;;;;;;10.28;99.54;103718.19;5057586;28;20021;-70
2023/12/17 00:27:19;;;;;;;40.88;21.85;;;;;;;10.26;99.66;103711.97;5065714;28;20261;-71
2023/12/17 00:29:44;;;;;;;41.38;22.88;;;;;;;10.25;99.62;103710.22;5062535;28;20035;-70
2023/12/17 00:32:10;;;;;;;38.00;20.38;;;;;;;10.29;99.40;103704.97;5054434;28;20040;-70
2023/12/17 00:34:35;;;;;;;36.95;19.63;;;;;;;10.30;99.29;103703.19;5054517;28;20025;-71
2023/12/17 00:37:00;;;;;;;36.35;20.00;;;;;;;10.28;99.46;103699.69;5058962;28;20036;-70
2023/12/17 00:39:26;;;;;;;34.97;19.67;;;;;;;10.35;99.13;103712.06;5054960;28;20025;-70
2023/12/17 00:41:51;;;;;;;34.35;19.42;;;;;;;10.35;99.22;103702.38;5056640;28;20155;-71
2023/12/17 00:44:16;;;;;;;35.75;19.13;;;;;;;10.39;99.01;103697.97;5055525;28;20039;-71
2023/12/17 00:46:42;;;;;;;34.78;20.05;;;;;;;10.40;98.64;103697.13;5056069;28;20029;-71
2023/12/17 00:49:07;;;;;;;38.00;19.70;;;;;;;10.42;98.37;103709.47;5057841;28;20025;-70
2023/12/17 00:51:34;;;;;;;33.55;19.05;;;;;;;10.43;98.35;103707.69;5056444;28;20028;-70
2023/12/17 00:53:59;;;;;;;35.88;21.10;;;;;;;10.39;98.42;103708.56;5053537;28;20427;-70
2023/12/17 00:56:25;;;;;;;36.50;19.40;;;;;;;10.38;98.53;103704.16;5055388;28;20032;-71
2023/12/17 00:58:50;;;;;;;35.05;19.83;;;;;;;10.33;98.90;103695.31;5061747;28;20055;-70
2023/12/17 01:01:15;;;;;;;39.47;19.80;;;;;;;10.36;99.06;103695.34;5055043;28;20029;-70
2023/12/17 01:03:41;;;;;;;31.00;17.85;;;;;;;10.38;98.68;103696.22;5056229;28;20028;-71
2023/12/17 01:06:06;;;;;;;38.28;21.77;;;;;;;10.34;98.56;103681.19;5057315;28;20071;-70
2023/12/17 01:08:32;;;;;;;36.88;20.40;;;;;;;10.31;98.91;103678.56;5054916;28;20425;-70
2023/12/17 01:10:57;;;;;;;38.72;20.80;;;;;;;10.26;99.27;103678.53;5061433;28;20185;-71
2023/12/17 01:13:22;;;;;;;36.63;20.10;;;;;;;10.32;98.95;103675.03;5061259;28;20028;-70
2023/12/17 01:15:48;;;;;;;39.22;19.42;;;;;;;10.31;98.67;103666.22;5058618;28;20024;-71
2023/12/17 01:18:13;;;;;;;33.80;20.20;;;;;;;10.34;98.96;103670.63;5056891;28;20036;-70
2023/12/17 01:20:40;;;;;;;33.70;18.70;;;;;;;10.36;98.54;103666.25;5059631;28;20016;-71
2023/12/17 01:23:05;;;;;;;34.00;20.17;;;;;;;10.30;98.98;103664.41;5057129;28;20024;-70
2023/12/17 01:25:31;;;;;;;37.53;19.10;;;;;;;10.37;99.07;103673.28;5067659;28;20102;-70
2023/12/17 01:27:56;;;;;;;37.70;19.13;;;;;;;10.38;98.65;103691.81;5059565;28;20063;-71
2023/12/17 01:30:21;;;;;;;36.85;20.10;;;;;;;10.34;98.75;103692.66;5063163;28;20813;-71
2023/12/17 01:32:47;;;;;;;35.22;18.58;;;;;;;10.34;99.34;103702.34;5055956;28;20028;-71
2023/12/17 01:35:12;;;;;;;37.13;19.17;;;;;;;10.36;98.62;103703.28;5065247;28;20043;-70
2023/12/17 01:37:38;;;;;;;37.65;19.10;;;;;;;10.39;98.70;103698.84;5058044;28;20035;-70
2023/12/17 01:40:04;;;;;;;39.17;19.60;;;;;;;10.47;98.15;103704.22;5059515;28;20020;-71
2023/12/17 01:42:29;;;;;;;40.17;20.02;;;;;;;10.44;98.27;103698.88;5053681;28;20043;-71
2023/12/17 01:44:54;;;;;;;37.05;19.27;;;;;;;10.43;97.83;103697.13;5053607;28;20058;-70
2023/12/17 01:47:20;;;;;;;38.97;21.00;;;;;;;10.46;98.09;103705.09;5060232;28;20348;-71
2023/12/17 01:49:45;;;;;;;38.63;20.15;;;;;;;10.38;98.41;103706.78;5051623;28;20021;-71
2023/12/17 01:52:11;;;;;;;35.80;19.45;;;;;;;10.37;98.23;103711.19;5061601;28;20033;-71
2023/12/17 01:54:36;;;;;;;37.38;20.65;;;;;;;10.35;98.46;103717.34;5058144;28;20040;-71
2023/12/17 01:57:02;;;;;;;37.08;19.40;;;;;;;10.34;98.44;103705.88;5060457;28;20516;-71
2023/12/17 01:59:28;;;;;;;33.92;17.77;;;;;;;10.35;98.77;103709.41;5057390;28;20028;-71
2023/12/17 02:01:53;;;;;;;32.75;18.35;;;;;;;10.34;98.67;103716.47;5050773;28;20106;-71
2023/12/17 02:04:21;;;;;;;36.53;20.38;;;;;;;10.34;98.51;103715.56;5063156;28;20055;-71
2023/12/17 02:06:47;;;;;;;36.35;18.33;;;;;;;10.33;98.60;103722.63;5059901;28;20037;-71
2023/12/17 02:09:12;;;;;;;33.42;19.23;;;;;;;10.28;99.24;103715.53;5062608;28;20585;-71
2023/12/17 02:11:38;;;;;;;37.53;19.75;;;;;;;10.26;99.24;103718.19;5059337;28;20515;-71
2023/12/17 02:14:03;;;;;;;33.63;18.35;;;;;;;10.27;98.94;103717.31;5056387;28;20029;-71
2023/12/17 02:16:28;;;;;;;35.63;18.02;;;;;;;10.30;99.16;103711.13;5057654;28;20036;-71
2023/12/17 02:18:57;;;;;;;33.38;18.25;;;;;;;10.33;99.03;103711.16;5057656;28;20559;-71
2023/12/17 02:21:23;;;;;;;34.28;17.88;;;;;;;10.31;98.45;103700.59;5058214;28;20123;-71
2023/12/17 02:23:48;;;;;;;36.15;17.65;;;;;;;10.27;98.79;103690.88;5058991;28;20169;-71
2023/12/17 02:26:14;;;;;;;32.85;17.63;;;;;;;10.28;98.52;103691.75;5054558;28;20663;-71
2023/12/17 02:28:39;;;;;;;35.95;17.48;;;;;;;10.29;98.77;103691.75;5062107;28;20503;-71
2023/12/17 02:31:04;;;;;;;38.58;18.08;;;;;;;10.27;98.46;103682.94;5062766;28;20036;-71
2023/12/17 02:33:30;;;;;;;31.55;16.20;;;;;;;10.33;97.90;103696.19;5051664;28;20029;-71
2023/12/17 02:35:55;;;;;;;28.50;15.65;;;;;;;10.31;98.07;103699.72;5059170;28;20029;-71
2023/12/17 02:38:21;;;;;;;34.92;17.00;;;;;;;10.30;98.41;103701.44;5058201;28;20025;-71
2023/12/17 02:40:46;;;;;;;31.58;16.05;;;;;;;10.31;97.94;103705.88;5055734;28;20059;-71
2023/12/17 02:43:11;;;;;;;31.30;16.98;;;;;;;10.31;97.98;103697.94;5055725;28;20387;-71
2023/12/17 02:45:37;;;;;;;28.75;15.55;;;;;;;10.32;97.76;103698.84;5056524;28;20471;-71
2023/12/17 02:48:02;;;;;;;30.08;15.77;;;;;;;10.32;98.14;103693.53;5061298;28;20472;-71
2023/12/17 02:50:28;;;;;;;30.23;16.20;;;;;;;10.35;97.62;103690.91;5056474;28;20078;-71
2023/12/17 02:52:53;;;;;;;32.80;16.52;;;;;;;10.38;97.81;103705.03;5056142;28;20066;-71
2023/12/17 02:55:19;;;;;;;35.88;16.80;;;;;;;10.34;97.69;103700.59;5059581;28;20037;-71
2023/12/17 02:57:44;;;;;;;37.30;17.85;;;;;;;10.30;98.17;103701.44;5049130;28;20102;-71
2023/12/17 03:00:10;;;;;;;32.75;16.98;;;;;;;10.33;98.07;103692.66;5050902;28;20485;-71
2023/12/17 03:02:35;;;;;;;32.55;17.13;;;;;;;10.32;97.91;103691.78;5059948;28;20044;-71
2023/12/17 03:05:01;;;;;;;33.22;16.45;;;;;;;10.31;98.06;103692.66;5063496;28;20059;-71
2023/12/17 03:07:27;;;;;;;32.75;16.67;;;;;;;10.31;97.93;103686.50;5061567;28;20052;-71
2023/12/17 03:09:54;;;;;;;36.70;18.02;;;;;;;10.28;98.07;103678.53;5060157;28;20033;-71
2023/12/17 03:12:20;;;;;;;32.80;16.58;;;;;;;10.32;98.16;103682.97;5061903;28;20108;-71
2023/12/17 03:14:45;;;;;;;35.70;17.95;;;;;;;10.28;98.10;103683.81;5064028;28;20096;-71
2023/12/17 03:17:10;;;;;;;28.88;15.82;;;;;;;10.27;98.38;103682.94;5055150;28;20036;-71
2023/12/17 03:19:36;;;;;;;34.60;17.95;;;;;;;10.25;98.46;103683.78;5052549;28;20025;-71
2023/12/17 03:22:01;;;;;;;33.55;17.33;;;;;;;10.20;98.95;103681.94;5055296;28;20411;-71
2023/12/17 03:24:26;;;;;;;30.75;16.00;;;;;;;10.18;99.04;103680.19;5056848;28;20052;-71
2023/12/17 03:26:52;;;;;;;30.25;16.13;;;;;;;10.17;99.56;103670.50;5055372;28;20120;-71
2023/12/17 03:29:17;;;;;;;27.25;14.55;;;;;;;10.15;99.73;103670.47;5059467;28;20441;-71
2023/12/17 03:31:42;;;;;;;28.50;15.23;;;;;;;10.17;99.24;103662.56;5054291;28;20040;-71
2023/12/17 03:34:08;;;;;;;27.48;14.82;;;;;;;10.10;99.83;103664.25;5056049;28;20512;-71
2023/12/17 03:36:33;;;;;;;25.25;13.98;;;;;;;10.13;100.00;103664.28;5058573;28;20024;-71
2023/12/17 03:38:58;;;;;;;24.73;12.38;;;;;;;10.14;100.00;103666.06;5057704;28;20516;-71
2023/12/17 03:41:26;;;;;;;23.98;13.43;;;;;;;10.14;99.54;103667.81;5061717;28;20021;-71
2023/12/17 03:43:53;;;;;;;22.52;12.77;;;;;;;10.11;99.86;103663.38;5062000;28;20025;-71
2023/12/17 03:46:22;;;;;;;22.88;11.75;;;;;;;10.13;100.00;103669.59;5058163;28;20051;-71
2023/12/17 03:48:48;;;;;;;22.55;13.00;;;;;;;10.13;99.61;103669.59;5055105;28;20024;-71
2023/12/17 03:51:13;;;;;;;21.75;11.25;;;;;;;10.16;99.96;103660.78;5051856;28;20443;-71
2023/12/17 03:53:38;;;;;;;22.20;12.50;;;;;;;10.21;99.11;103659.94;5052599;28;20024;-71
2023/12/17 03:56:09;;;;;;;19.95;11.95;;;;;;;10.20;99.24;103654.63;5060741;28;20516;-71
2023/12/17 03:58:34;;;;;;;20.33;11.05;;;;;;;10.20;99.26;103652.88;5057294;28;20040;-71
2023/12/17 04:01:01;;;;;;;19.58;11.52;;;;;;;10.17;99.67;103644.94;5055488;28;20207;-71
2023/12/17 04:03:26;;;;;;;22.25;11.73;;;;;;;10.18;99.56;103640.53;5057205;28;20021;-71
2023/12/17 04:05:51;;;;;;;20.95;12.45;;;;;;;10.13;99.96;103636.97;5066690;28;20025;-71
2023/12/17 04:08:18;;;;;;;18.08;10.60;;;;;;;10.14;100.00;103636.97;5059103;28;20052;-71
2023/12/17 04:10:43;;;;;;;20.67;11.75;;;;;;;10.14;99.71;103634.34;5062460;28;20021;-72
2023/12/17 04:13:09;;;;;;;18.98;10.27;;;;;;;10.17;99.59;103633.47;5066355;28;20090;-71
2023/12/17 04:15:34;;;;;;;16.33;10.00;;;;;;;10.15;99.69;103641.38;5065058;28;20537;-71
2023/12/17 04:17:59;;;;;;;18.13;11.48;;;;;;;10.15;99.20;103640.50;5064468;28;20035;-71
2023/12/17 04:20:25;;;;;;;17.83;10.00;;;;;;;10.16;99.22;103640.50;5064530;28;20028;-71
2023/12/17 04:22:50;;;;;;;18.05;10.68;;;;;;;10.18;98.89;103632.59;5061286;28;20454;-71
2023/12/17 04:25:15;;;;;;;18.80;11.93;;;;;;;10.13;99.56;103632.56;5061729;28;20028;-71
2023/12/17 04:27:41;;;;;;;18.58;9.90;;;;;;;10.14;99.72;103642.25;5062968;28;20046;-71
2023/12/17 04:30:07;;;;;;;16.92;10.18;;;;;;;10.10;99.98;103631.66;5065050;28;20052;-71
2023/12/17 04:32:32;;;;;;;15.93;9.52;;;;;;;10.17;99.46;103626.44;5053410;28;20020;-71
2023/12/17 04:34:57;;;;;;;20.48;10.65;;;;;;;10.12;99.30;103620.25;5058085;28;20437;-71
2023/12/17 04:37:23;;;;;;;16.25;9.50;;;;;;;10.10;99.06;103611.41;5065015;28;20059;-71
2023/12/17 04:39:48;;;;;;;19.40;9.73;;;;;;;10.07;100.00;103621.06;5065268;28;20044;-71
2023/12/17 04:42:14;;;;;;;16.58;9.65;;;;;;;10.07;99.89;103621.06;5061726;28;20134;-71
2023/12/17 04:44:39;;;;;;;22.65;12.80;;;;;;;9.94;100.00;103626.28;5059536;28;20025;-71
2023/12/17 04:47:05;;;;;;;18.48;10.48;;;;;;;9.97;100.00;103626.28;5059835;28;20028;-71
2023/12/17 04:49:30;;;;;;;18.80;9.40;;;;;;;10.01;99.86;103626.31;5060657;28;20027;-71
2023/12/17 04:51:56;;;;;;;20.92;10.93;;;;;;;10.02;100.00;103626.31;5063237;28;20048;-71
2023/12/17 04:54:21;;;;;;;17.00;10.02;;;;;;;10.05;99.68;103628.09;5054405;28;20680;-71
2023/12/17 04:56:46;;;;;;;17.75;10.80;;;;;;;10.03;99.72;103633.38;5058050;28;20056;-71
2023/12/17 04:59:12;;;;;;;15.75;9.57;;;;;;;9.99;99.85;103626.31;5056177;28;20067;-71
2023/12/17 05:01:37;;;;;;;19.90;11.07;;;;;;;9.94;100.00;103628.03;5056102;28;20055;-71
2023/12/17 05:04:03;;;;;;;18.77;11.02;;;;;;;9.99;99.86;103623.66;5062717;28;20127;-71
2023/12/17 05:06:28;;;;;;;19.08;11.27;;;;;;;9.98;99.16;103613.97;5056841;28;20025;-71
2023/12/17 05:08:53;;;;;;;20.17;10.63;;;;;;;9.90;100.00;103616.56;5064333;28;20096;-71
2023/12/17 05:11:19;;;;;;;20.70;10.90;;;;;;;9.89;100.00;103608.63;5065821;28;20020;-71
2023/12/17 05:13:44;;;;;;;20.90;12.50;;;;;;;9.90;99.63;103615.69;5067706;28;20074;-71
2023/12/17 05:16:10;;;;;;;20.90;10.32;;;;;;;9.92;99.94;103619.19;5058632;28;20020;-71
2023/12/17 05:18:35;;;;;;;19.17;11.95;;;;;;;9.86;99.36;103624.44;5058730;28;20035;-71
2023/12/17 05:21:00;;;;;;;20.80;11.57;;;;;;;9.86;99.50;103619.16;5063733;28;20036;-71
2023/12/17 05:23:26;;;;;;;20.98;10.23;;;;;;;9.92;99.37;103616.56;5057377;28;20025;-71
2023/12/17 05:25:51;;;;;;;20.50;10.68;;;;;;;9.95;98.86;103619.22;5065289;28;20064;-71
2023/12/17 05:28:17;;;;;;;21.30;10.65;;;;;;;9.95;98.40;103620.13;5059149;28;20025;-71
2023/12/17 05:30:42;;;;;;;21.20;11.27;;;;;;;9.99;98.39;103618.38;5056755;28;20036;-71
2023/12/17 05:33:07;;;;;;;20.55;11.85;;;;;;;9.98;97.73;103624.56;5055107;28;20056;-71
2023/12/17 05:35:33;;;;;;;20.98;10.55;;;;;;;9.94;98.50;103617.47;5053262;28;20032;-71
2023/12/17 05:37:58;;;;;;;20.35;11.90;;;;;;;9.94;98.35;103626.28;5059835;28;20024;-71
2023/12/17 05:40:23;;;;;;;20.83;12.07;;;;;;;9.93;98.26;103627.16;5060623;28;20484;-72
2023/12/17 05:42:49;;;;;;;20.48;11.88;;;;;;;9.91;98.46;103620.09;5058543;28;20479;-71
2023/12/17 05:45:14;;;;;;;23.83;12.25;;;;;;;9.90;98.64;103623.59;5057583;28;20682;-71
2023/12/17 05:47:41;;;;;;;20.20;11.65;;;;;;;9.87;98.49;103619.16;5059870;28;20021;-71
2023/12/17 05:50:07;;;;;;;21.25;11.30;;;;;;;9.87;98.58;103623.56;5057708;28;20103;-71
2023/12/17 05:52:33;;;;;;;20.10;11.75;;;;;;;9.84;99.06;103612.97;5057061;28;20492;-71
2023/12/17 05:54:58;;;;;;;20.23;11.70;;;;;;;9.84;99.11;103612.97;5057160;28;20090;-71
2023/12/17 05:57:24;;;;;;;22.40;11.43;;;;;;;9.84;98.56;103605.03;5065359;28;20047;-71
2023/12/17 05:59:49;;;;;;;18.05;11.10;;;;;;;9.84;98.32;103605.94;5054452;28;20024;-71
2023/12/17 06:02:14;;;;;;;23.25;11.82;;;;;;;9.88;98.33;103612.13;5057622;28;20024;-71
2023/12/17 06:04:40;;;;;;;22.35;12.40;;;;;;;9.78;98.63;103608.53;5060551;28;20480;-71
2023/12/17 06:07:06;;;;;;;22.30;13.18;;;;;;;9.78;98.08;103610.28;5054870;28;20040;-71
2023/12/17 06:09:31;;;;;;;22.60;12.00;;;;;;;9.74;98.38;103612.00;5059851;28;20029;-71
2023/12/17 06:11:57;;;;;;;24.73;10.80;;;;;;;9.78;97.74;103616.44;5057176;28;20035;-71
2023/12/17 06:14:23;;;;;;;17.60;9.73;;;;;;;9.76;97.99;103607.66;5052877;28;20044;-71
2023/12/17 06:16:49;;;;;;;18.48;10.63;;;;;;;9.77;97.20;103603.25;5062545;28;20471;-71
2023/12/17 06:19:14;;;;;;;16.52;9.38;;;;;;;9.83;97.08;103605.91;5058689;28;20034;-71
2023/12/17 06:21:40;;;;;;;17.95;9.45;;;;;;;9.81;96.50;103592.72;5059379;28;20068;-71
2023/12/17 06:24:05;;;;;;;15.15;8.25;;;;;;;9.85;96.12;103602.44;5062151;28;20438;-71
2023/12/17 06:26:31;;;;;;;14.85;8.43;;;;;;;9.87;95.92;103605.94;5063365;28;20036;-71
2023/12/17 06:28:56;;;;;;;15.10;8.18;;;;;;;9.87;95.30;103603.31;5055392;28;20060;-71
2023/12/17 06:31:23;;;;;;;13.10;7.70;;;;;;;9.79;95.34;103612.06;5059264;28;20029;-71
2023/12/17 06:33:48;;;;;;;12.27;7.55;;;;;;;9.85;95.10;103618.28;5053707;28;20029;-71
2023/12/17 06:36:14;;;;;;;12.02;6.95;;;;;;;9.81;94.90;103612.97;5059661;28;20554;-71
2023/12/17 06:38:40;;;;;;;12.73;7.82;;;;;;;9.82;94.31;103614.72;5057791;28;20028;-71
2023/12/17 06:41:08;;;;;;;13.70;7.70;;;;;;;9.86;94.64;103620.03;5054654;28;20099;-71
2023/12/17 06:43:33;;;;;;;14.25;7.65;;;;;;;9.83;94.05;103612.09;5053542;28;20101;-72
2023/12/17 06:45:59;;;;;;;11.73;7.22;;;;;;;9.86;94.38;103616.53;5059820;28;20503;-71
2023/12/17 06:48:24;;;;;;;12.02;7.40;;;;;;;9.87;94.59;103607.72;5053746;28;20107;-71
2023/12/17 06:50:49;;;;;;;12.60;7.75;;;;;;;9.82;94.65;103610.31;5060257;28;20044;-71
2023/12/17 06:53:15;;;;;;;14.02;8.20;;;;;;;9.78;95.06;103608.53;5055886;28;20036;-72
2023/12/17 06:55:44;;;;;;;16.80;8.38;;;;;;;9.73;95.09;103610.25;5061875;28;20031;-71
2023/12/17 06:58:09;;;;;;;16.02;8.18;;;;;;;9.77;95.54;103608.53;5056894;28;20408;-71
2023/12/17 07:00:34;;;;;;;16.10;8.23;;;;;;;9.78;95.40;103599.72;5056974;28;20028;-71
2023/12/17 07:03:00;;;;;;;14.80;8.68;;;;;;;9.75;95.53;103602.34;5054924;28;20107;-71
2023/12/17 07:05:28;;;;;;;15.68;9.32;;;;;;;9.76;96.08;103601.47;5057721;28;20103;-71
2023/12/17 07:07:54;;;;;;;16.98;9.85;;;;;;;9.72;96.69;103605.84;5053400;28;20038;-71
2023/12/17 07:10:20;;;;;;;19.55;11.07;;;;;;;9.66;96.76;103603.16;5060085;28;20032;-71
2023/12/17 07:12:46;;;;;;;20.50;11.93;;;;;;;9.63;97.21;103597.84;5062866;28;20029;-71
2023/12/17 07:15:12;;;;;;;17.55;11.57;;;;;;;9.59;96.80;103610.13;5055303;28;20095;-71
2023/12/17 07:17:37;;;;;;;19.45;10.65;;;;;;;9.64;96.63;103605.78;5058994;28;20038;-71
2023/12/17 07:20:03;;;;;;;21.90;10.05;;;;;;;9.58;96.86;103599.56;5061220;28;20451;-71
2023/12/17 07:22:28;;;;;;;17.77;10.48;;;;;;;9.53;96.09;103610.09;5060920;28;20043;-72
2023/12/17 07:24:54;;;;;;;20.13;10.15;;;;;;;9.56;95.98;103617.13;5062724;28;20016;-71
2023/12/17 07:27:19;;;;;;;16.02;8.63;;;;;;;9.60;95.43;103605.75;5066870;28;20020;-71
2023/12/17 07:29:44;;;;;;;14.15;8.40;;;;;;;9.63;94.17;103613.69;5051985;28;20043;-71
2023/12/17 07:32:10;;;;;;;14.35;8.75;;;;;;;9.61;93.60;103618.97;5058316;28;20068;-71
2023/12/17 07:34:35;;;;;;;16.20;9.43;;;;;;;9.66;93.51;103611.97;5055984;28;20116;-71
2023/12/17 07:37:00;;;;;;;14.07;8.25;;;;;;;9.62;93.65;103615.47;5062104;28;20480;-71
2023/12/17 07:39:27;;;;;;;13.02;8.38;;;;;;;9.65;93.60;103626.06;5055903;28;20546;-71
2023/12/17 07:41:52;;;;;;;13.25;7.95;;;;;;;9.63;93.50;103630.44;5060220;28;20024;-71
2023/12/17 07:44:18;;;;;;;16.13;8.68;;;;;;;9.57;94.02;103633.03;5053594;28;20025;-71
2023/12/17 07:46:43;;;;;;;16.85;8.30;;;;;;;9.62;94.26;103631.31;5062658;28;20028;-71
2023/12/17 07:49:09;;;;;;;15.27;8.90;;;;;;;9.65;94.28;103633.06;5058252;28;20036;-71
2023/12/17 07:51:34;;;;;;;14.27;7.95;;;;;;;9.66;94.01;103632.22;5052621;28;20037;-71
2023/12/17 07:54:00;;;;;;;18.45;9.25;;;;;;;9.52;94.60;103631.22;5061878;28;20029;-72
2023/12/17 07:56:26;;;;;;;15.73;9.00;;;;;;;9.60;94.15;103629.50;5059488;28;20484;-71
2023/12/17 07:58:52;;;;;;;15.45;8.50;;;;;;;9.57;94.52;103625.09;5060947;28;20027;-71
2023/12/17 08:01:29;;;;;;;12.65;7.32;;;;;;;9.58;94.71;103631.25;5062151;28;20016;-71
2023/12/17 08:03:54;;;;;;;16.42;8.50;;;;;;;9.53;94.30;103632.97;5061185;28;20056;-71
2023/12/17 08:06:19;;;;;;;15.18;9.32;;;;;;;9.43;94.64;103635.53;5057436;28;20063;-72
2023/12/17 08:08:45;;;;;;;16.77;8.35;;;;;;;9.52;94.29;103636.50;5051402;28;20054;-72
2023/12/17 08:11:12;;;;;;;14.80;8.10;;;;;;;9.45;94.26;103635.53;5055102;28;20025;-71
2023/12/17 08:13:37;;;;;;;13.25;7.32;;;;;;;9.51;94.02;103637.34;5064210;28;20062;-71
2023/12/17 08:16:03;;;;;;;14.70;7.70;;;;;;;9.38;94.16;103634.63;5060002;28;20055;-71
2023/12/17 08:18:28;;;;;;;12.82;7.13;;;;;;;9.50;93.87;103628.53;5059747;28;20036;-71
2023/12/17 08:20:54;;;;;;;12.20;7.40;;;;;;;9.40;93.73;103630.22;5063307;28;20476;-70
2023/12/17 08:23:19;;;;;;;11.18;6.13;;;;;;;9.42;93.93;103627.63;5063953;28;20447;-72
2023/12/17 08:25:44;;;;;;;11.40;6.82;;;;;;;9.44;93.19;103628.50;5064189;28;20120;-71
2023/12/17 08:28:10;;;;;;;12.95;7.32;;;;;;;9.44;93.48;103631.13;5064388;28;20492;-71
2023/12/17 08:30:37;;;;;;;12.80;6.93;;;;;;;9.40;93.34;103647.81;5058306;28;20024;-71
2023/12/17 08:33:03;;;;;;;12.65;7.22;;;;;;;9.35;93.51;103641.63;5063358;28;20036;-71
2023/12/17 08:35:31;;;;;;;8.85;4.93;;;;;;;9.25;93.81;103637.13;5056172;28;20590;-71
2023/12/17 08:38:03;;;;;;;10.48;6.03;;;;;;;9.21;93.75;103649.38;5062400;28;20107;-71
2023/12/17 08:40:28;;;;;;;13.50;7.45;;;;;;;9.08;94.10;103651.00;5062325;28;20021;-71
2023/12/17 08:42:54;;;;;;;12.80;7.78;;;;;;;9.11;93.97;103645.78;5065164;28;20063;-71
2023/12/17 08:45:19;;;;;;;11.98;6.65;;;;;;;9.19;93.65;103651.16;5060024;28;20040;-71
2023/12/17 08:47:44;;;;;;;13.70;6.90;;;;;;;9.20;93.56;103652.91;5055157;28;20029;-71
2023/12/17 08:50:10;;;;;;;12.13;7.43;;;;;;;9.12;93.62;103647.53;5059293;28;20112;-71
2023/12/17 08:52:36;;;;;;;11.93;7.00;;;;;;;9.16;93.43;103653.72;5069509;28;20029;-71
2023/12/17 08:55:02;;;;;;;10.18;6.28;;;;;;;9.08;93.12;103647.47;5062260;28;20116;-71
2023/12/17 08:57:28;;;;;;;10.90;6.65;;;;;;;9.07;93.50;103657.16;5063260;28;20136;-71
2023/12/17 08:59:53;;;;;;;12.07;7.50;;;;;;;9.09;92.93;103650.16;5065113;28;20024;-71
2023/12/17 09:02:19;;;;;;;14.25;8.07;;;;;;;9.07;92.84;103656.28;5059895;28;20044;-71
2023/12/17 09:04:44;;;;;;;11.77;6.80;;;;;;;9.16;92.91;103659.00;5063934;28;20381;-70
2023/12/17 09:07:10;;;;;;;14.98;8.07;;;;;;;9.12;93.17;103657.22;5059675;28;20020;-71
2023/12/17 09:09:35;;;;;;;14.25;8.35;;;;;;;9.11;92.96;103655.44;5062153;28;20550;-71
2023/12/17 09:12:01;;;;;;;15.02;8.25;;;;;;;9.10;93.62;103644.00;5057510;28;20484;-71
2023/12/17 09:14:26;;;;;;;15.40;8.38;;;;;;;9.05;93.07;103647.47;5055950;28;20468;-70
2023/12/17 09:16:52;;;;;;;15.98;9.18;;;;;;;8.94;93.51;103642.03;5060984;28;20032;-71
2023/12/17 09:19:17;;;;;;;15.05;7.25;;;;;;;8.97;94.18;103641.22;5060899;28;20025;-71
2023/12/17 09:21:42;;;;;;;15.68;8.43;;;;;;;8.82;94.62;103648.06;5060825;28;20500;-71
2023/12/17 09:24:08;;;;;;;17.23;7.97;;;;;;;8.67;94.38;103651.41;5061117;28;20032;-71
2023/12/17 09:26:33;;;;;;;14.23;7.53;;;;;;;8.64;95.08;103654.00;5061219;28;20082;-70
2023/12/17 09:28:59;;;;;;;15.25;8.52;;;;;;;8.64;94.59;103651.38;5061511;28;20031;-70
2023/12/17 09:31:24;;;;;;;18.65;10.60;;;;;;;8.52;94.69;103653.81;5063323;28;20099;-70
2023/12/17 09:33:50;;;;;;;12.73;7.55;;;;;;;8.64;93.96;103645.22;5063023;28;20055;-70
2023/12/17 09:36:16;;;;;;;16.58;8.57;;;;;;;8.69;93.36;103643.50;5055237;28;20033;-70
2023/12/17 09:38:42;;;;;;;16.65;8.75;;;;;;;8.72;93.72;103647.91;5061752;28;20119;-71
2023/12/17 09:41:08;;;;;;;18.77;8.85;;;;;;;8.78;93.38;103650.66;5064949;28;20059;-70
2023/12/17 09:43:34;;;;;;;17.33;9.35;;;;;;;8.78;93.67;103655.94;5061684;28;20503;-71
2023/12/17 09:45:59;;;;;;;15.55;8.18;;;;;;;8.85;92.89;103657.75;5061228;28;20016;-70
2023/12/17 09:48:25;;;;;;;14.45;8.20;;;;;;;8.85;93.16;103658.66;5056833;28;20021;-70
2023/12/17 09:50:50;;;;;;;17.35;8.77;;;;;;;8.92;92.64;103652.59;5049621;28;20028;-71
2023/12/17 09:53:16;;;;;;;17.83;8.95;;;;;;;8.85;92.67;103653.38;5054509;28;20028;-71
2023/12/17 09:55:41;;;;;;;19.48;10.20;;;;;;;8.67;93.25;103656.69;5055166;28;20033;-70
2023/12/17 09:58:07;;;;;;;21.67;11.52;;;;;;;8.63;93.47;103661.91;5059383;28;20108;-71
2023/12/17 10:00:33;;;;;;;19.95;9.65;;;;;;;8.68;93.76;103655.81;5059607;28;20035;-70
2023/12/17 10:03:04;;;;;;;18.50;9.27;;;;;;;8.61;93.95;103661.84;5061788;28;20099;-70
2023/12/17 10:05:30;;;;;;;18.52;9.50;;;;;;;8.69;93.54;103662.84;5055135;28;20021;-70
2023/12/17 10:07:56;;;;;;;18.15;10.55;;;;;;;8.64;93.12;103663.66;5054631;28;20078;-70
2023/12/17 10:10:21;;;;;;;21.45;12.43;;;;;;;8.52;92.84;103660.84;5057308;28;20036;-71
2023/12/17 10:12:47;;;;;;;20.35;10.13;;;;;;;8.48;93.36;103665.19;5061069;28;20048;-70
2023/12/17 10:15:13;;;;;;;20.23;11.00;;;;;;;8.43;93.42;103664.25;5054832;28;20024;-70
2023/12/17 10:17:38;;;;;;;20.95;11.30;;;;;;;8.37;93.85;103657.13;5055743;28;20079;-71
2023/12/17 10:20:06;;;;;;;22.25;10.95;;;;;;;8.45;93.42;103659.00;5061444;28;20028;-70
2023/12/17 10:22:32;;;;;;;24.67;11.77;;;;;;;8.39;93.47;103676.53;5064028;28;20023;-71
2023/12/17 10:24:57;;;;;;;22.15;10.10;;;;;;;8.46;93.57;103680.13;5060623;28;20493;-70
2023/12/17 10:27:22;;;;;;;19.90;10.80;;;;;;;8.55;93.35;103664.44;5055752;28;20077;-71
2023/12/17 10:29:52;;;;;;;22.25;10.18;;;;;;;8.57;93.07;103672.34;5060334;28;20033;-70
2023/12/17 10:32:23;;;;;;;26.02;12.02;;;;;;;8.47;92.73;103659.91;5060107;28;20036;-71
2023/12/17 10:34:50;;;;;;;22.98;11.48;;;;;;;8.38;93.18;103656.28;5055594;28;20397;-71
2023/12/17 10:37:20;;;;;;;26.83;12.63;;;;;;;8.37;93.40;103653.63;5053180;28;20037;-70
2023/12/17 10:39:49;;;;;;;29.77;14.20;;;;;;;8.32;93.72;103650.88;5061560;28;20072;-71
2023/12/17 10:42:16;;;;;;;28.88;13.35;;;;;;;8.40;94.03;103651.03;5064782;28;20519;-70
2023/12/17 10:44:47;;;;;;;24.40;11.85;;;;;;;8.47;93.61;103654.63;5056434;28;20017;-70
2023/12/17 10:47:16;;;;;;;27.98;13.88;;;;;;;8.53;93.44;103644.16;5053891;28;20056;-70
2023/12/17 10:49:43;;;;;;;24.05;12.98;;;;;;;8.61;92.78;103643.41;5060805;28;20028;-70
2023/12/17 10:52:09;;;;;;;29.70;12.80;;;;;;;8.58;93.02;103638.09;5054721;28;20120;-71
2023/12/17 10:54:35;;;;;;;26.10;12.27;;;;;;;8.65;92.70;103642.59;5056642;28;20039;-71
2023/12/17 10:57:02;;;;;;;28.13;13.90;;;;;;;8.64;92.57;103632.91;5051601;28;20438;-70
2023/12/17 10:59:31;;;;;;;27.35;13.80;;;;;;;8.81;92.49;103624.28;5054640;28;20037;-70
2023/12/17 11:01:59;;;;;;;27.42;13.63;;;;;;;8.96;91.67;103623.63;5056279;28;20420;-70
2023/12/17 11:04:25;;;;;;;26.77;14.35;;;;;;;9.01;91.07;103622.78;5056602;28;20623;-70
2023/12/17 11:06:51;;;;;;;32.33;16.85;;;;;;;9.02;89.51;103619.28;5053482;28;20016;-70
2023/12/17 11:09:17;;;;;;;28.10;13.20;;;;;;;9.28;89.93;103610.72;5064353;28;20070;-70